Aérodrome :
LOGIN :

S'inscrire | Disclaimer

   EN    FR    IT 

 










Légende :    VFR   VFR Marginal   IFR   IFR Intensif   IFR Très Intensif
Visi : 
Plafond : 
>= 8 km
>= 3000ft
5 à 8 km
1000 à 3000 ft
1500m à 5 km
500 à 1000 ft
800 à 1500m
200 à 500 ft
< 800m
< 200 ft
Symboles :   Orages  Brouillard  Fortes neiges  Fortes précipitations  Vent > 20 kt
SIGMETs :   Divers  Orages  Givrage  Turbulence  Onde Orograph.  Cendres Volcan.






- Altitude de l'aérodrome : 26 ft
- Code IATA : GLA


EGPF - Glasgow

DERNIER METAR :
  • 200020Z AUTO 25003KT 9999 NCD 03/00 Q1027

METARs EXPIRÉS :
  • 192350Z AUTO VRB01KT 9999 NCD 04/01 Q1027
  • 192320Z AUTO 34003KT 9999 NCD 03/M00 Q1027
  • 192250Z AUTO 27003KT 9999 NCD 03/M01 Q1026
  • 192220Z AUTO VRB02KT 9999 NCD 04/M01 Q1026
  • 192150Z AUTO 22004KT 9999 NCD 05/M00 Q1026
  • 192120Z AUTO VRB02KT 9999 NCD 06/M01 Q1025
  • 192050Z AUTO 27004KT 9999 NCD 05/00 Q1025
  • 192020Z AUTO VRB02KT 9999 NCD 07/M01 Q1025
  • 191950Z AUTO 02003KT 9999 NCD 07/M01 Q1024

TAF TAF EGPF
Valide du 20 à 00h jusqu'au 21 à 00h UTC


192254Z 2000/2024 VRB03KT 9999 FEW030
ATIS : +44 141 887 7449



MET'MAP, la Météo Aéronautique d'un coup d'oeil ! - Copyright ORBIFLY Décembre 2007 - Disclaimer

ORBIFLY MET'MAP TEAM :

Programmation & Développement : Alexandra Zaïnal
Sur une idée originale de : Baudouin d'Aumeries
Soutien technique & logistique : Manuel Goepfert
Assistance : Marc-Olivier Méhu




SOURCES & CREDITS :

   NOAA